Ararat, Virginia
Current Conditions -  °F | °C
As of 2:15 AM on Friday 28 Nov 2014 (Local Time) from KMWK Reporting Station
Overcast Overcast  
Wind Chill: 26°   Ceiling: 5000
Heat Index: 34°   Visibility: 10mi
Dew Point: 19°   Wind: 9mph
Humidity: 55%   Direction: 320°NW
Pressure: 30.3"   Gusts: NA
Location:  36.6°N, 80.51°W
Report Text: KMWK 280715Z AUTO 32008KT 10SM OVC050 01/M07 A3030 RMK AO2 T00101071
Loading
Personal Weather Stations






























Interactive Weather Map New forecast layout! Learn more

10-Day Weather Forecast

Advertisements
Track Severe Weather on mobile